Anmoore, West Virginia
Current Conditions -  °F | °C
As of 7:53 PM on Sunday 23 Nov 2014 (Local Time) from KCKB Reporting Station
Overcast Overcast  
Wind Chill: 59°   Ceiling: 11000
Heat Index: 59°   Visibility: 10mi
Dew Point: 48°   Wind: 9mph
Humidity: 67%   Direction: 140°SE
Pressure: 29.7"   Gusts: NA
Location:  39.26°N, 80.29°W
Report Text: KCKB 240053Z 14008KT 10SM OVC110 15/09 A2970 RMK AO2 RAE20 SLP053 P0000 T01500089
Loading
Personal Weather Stations






























Interactive Weather Map New forecast layout! Learn more

10-Day Weather Forecast

Advertisements
Track Severe Weather on mobile